Terminal Aerodrome Forecast
Issued by NWS

Home | Current Version | Previous Version | Text Only | Print | Product List | Glossary On
Versions: 1 2 3 4 5 6 7 8 9 10 11 12 13
000
FTUS45 KVEF 230520
TAFDAG
TAF
KDAG 230520Z 2306/2406 26010KT P6SM FEW250
     FM231600 27018G28KT P6SM SKC
     FM232100 27025G35KT P6SM SKC
     FM240400 26020G30KT P6SM SKC=

USA.gov is the U.S. government's official web portal to all federal, state and local government web resources and services.